Vraca, Bulgaria
Current Conditions -  °F | °C
As of 9:30 PM on Monday 26 Jan 2015 (Local Time) from LBSF Reporting Station
Overcast Overcast  
Wind Chill: 34°   Ceiling: 3200
Heat Index: 34°   Visibility: 5mi
Dew Point: 30°   Wind: 2mph
Humidity: 87%   Direction: 310°NW
Pressure: 30.09"   Gusts: NA
Location:  43.22°N, 23.56°E
Report Text: LBSF 261830Z 31002KT 8000 SCT018 OVC032 01/M01 Q1019 NOSIG
Loading
Personal Weather Stations






























Interactive Weather Map New forecast layout! Learn more

10-Day Weather Forecast

Advertisements
Track Severe Weather on mobile